createdAt,value
2019-01-05T00:01:02.090Z,2.40
2019-01-05T00:03:32.916Z,2.40
2019-01-05T00:06:19.908Z,2.57
2019-01-05T00:08:50.724Z,2.50
2019-01-05T00:11:27.587Z,2.70
2019-01-05T00:14:07.167Z,2.93
2019-01-05T00:16:44.014Z,2.47
2019-01-05T00:19:34.034Z,2.87
2019-01-05T00:22:09.923Z,3.50
2019-01-05T00:24:43.692Z,2.77
2019-01-05T00:27:31.138Z,2.83
2019-01-05T00:30:18.719Z,2.97
2019-01-05T00:33:06.454Z,2.40
2019-01-05T00:35:40.346Z,3.47
2019-01-05T00:38:12.605Z,3.10
2019-01-05T00:40:47.599Z,1.87
2019-01-05T00:43:18.846Z,2.50
2019-01-05T00:45:52.194Z,2.87
2019-01-05T00:48:33.334Z,2.77
2019-01-05T00:51:21.836Z,2.93
2019-01-05T00:54:08.623Z,2.90
2019-01-05T00:56:56.412Z,2.93
2019-01-05T00:59:42.928Z,2.53
2019-01-05T01:02:16.874Z,2.40
2019-01-05T01:04:50.512Z,2.63
2019-01-05T01:07:21.328Z,2.83
2019-01-05T01:10:08.182Z,2.07
2019-01-05T01:12:41.544Z,2.33
2019-01-05T01:15:19.424Z,2.13
2019-01-05T01:17:50.665Z,2.03
2019-01-05T01:20:22.657Z,2.37
2019-01-05T01:23:11.914Z,2.43
2019-01-05T01:25:45.888Z,2.43
2019-01-05T01:28:17.034Z,2.50
2019-01-05T01:31:04.180Z,2.50
2019-01-05T01:33:42.141Z,2.07
2019-01-05T01:36:13.132Z,2.70
2019-01-05T01:38:49.718Z,2.30
2019-01-05T01:41:29.218Z,2.53
2019-01-05T01:44:02.911Z,2.40
2019-01-05T01:46:36.956Z,2.33
2019-01-05T01:49:11.300Z,2.40
2019-01-05T01:51:42.987Z,2.43
2019-01-05T01:54:30.680Z,2.77
2019-01-05T01:57:19.497Z,3.10
2019-01-05T01:59:54.173Z,3.23
2019-01-05T02:02:26.848Z,2.87
2019-01-05T02:04:58.784Z,2.20
2019-01-05T02:07:40.222Z,2.13
2019-01-05T02:10:29.077Z,2.13
2019-01-05T11:07:01.558Z,3.33
2019-01-05T11:09:50.219Z,3.77
2019-01-05T11:12:45.178Z,2.87
2019-01-05T11:15:54.206Z,2.80
2019-01-05T11:19:17.621Z,3.07
2019-01-05T11:22:33.697Z,2.60
2019-01-05T11:25:43.958Z,3.00
2019-01-05T11:28:33.090Z,2.70
2019-01-05T11:31:51.901Z,2.30
2019-01-05T11:34:46.778Z,2.60
2019-01-05T11:38:10.032Z,1.90
2019-01-05T11:41:16.916Z,3.10
2019-01-05T11:44:19.353Z,2.20
2019-01-05T11:47:20.001Z,2.20
2019-01-05T11:49:59.636Z,3.40
2019-01-05T11:53:08.505Z,2.80
2019-01-05T11:56:03.555Z,2.57
2019-01-05T12:01:40.203Z,3.27
2019-01-05T12:04:33.365Z,2.67
2019-01-05T12:07:15.588Z,3.10
2019-01-05T12:09:52.082Z,2.83
2019-01-05T12:12:51.110Z,3.40
2019-01-05T12:15:55.580Z,3.70
2019-01-05T12:19:02.553Z,2.90
2019-01-05T12:22:08.770Z,3.10
2019-01-05T12:25:32.433Z,3.07
2019-01-05T15:04:09.149Z,2.87
2019-01-05T15:06:51.963Z,2.40
2019-01-05T15:09:34.749Z,2.70
2019-01-05T15:12:20.422Z,2.90
2019-01-05T15:14:51.244Z,2.43
2019-01-05T15:17:32.386Z,2.37
2019-01-05T15:20:19.360Z,3.40
2019-01-05T15:22:50.219Z,2.63
2019-01-05T15:25:36.365Z,2.77
2019-01-05T15:28:23.394Z,3.57
2019-01-05T15:31:10.258Z,2.87
2019-01-05T15:33:41.078Z,3.03
2019-01-05T15:36:11.895Z,2.80
2019-01-05T15:38:57.551Z,2.43
2019-01-05T15:44:42.093Z,2.83
2019-01-05T15:47:12.909Z,3.53
2019-01-05T15:50:00.158Z,2.70
2019-01-05T15:52:36.718Z,2.77
2019-01-05T15:55:08.577Z,3.47
2019-01-05T15:57:45.588Z,2.63
2019-01-05T16:00:19.641Z,3.00
2019-01-05T16:02:50.453Z,2.93
2019-01-05T16:05:37.295Z,2.87
2019-01-05T16:08:16.980Z,3.20
2019-01-05T16:10:47.829Z,3.60
2019-01-05T16:13:36.652Z,3.17
2019-01-05T16:16:07.471Z,2.53
2019-01-05T16:18:38.299Z,3.80
2019-01-05T16:21:24.920Z,2.87
2019-01-05T16:23:55.732Z,3.00
2019-01-05T16:26:26.570Z,3.20
2019-01-05T16:28:57.412Z,3.73
2019-01-05T16:31:44.556Z,2.83
2019-01-05T16:34:15.384Z,3.43
2019-01-05T16:37:02.585Z,2.90
2019-01-05T16:39:36.086Z,3.03
2019-01-05T16:42:23.100Z,2.70
2019-01-05T16:45:10.143Z,2.57
2019-01-05T16:47:40.952Z,3.23
2019-01-05T16:50:14.335Z,3.23
2019-01-05T16:53:03.399Z,3.00
2019-01-05T16:55:50.351Z,3.33
2019-01-05T16:58:37.158Z,3.17
2019-01-05T17:01:26.120Z,3.47
2019-01-05T17:04:12.895Z,3.20
2019-01-05T17:06:43.713Z,3.50
2019-01-05T17:09:15.606Z,3.33
2019-01-05T17:11:52.057Z,3.03
2019-01-05T17:14:28.717Z,3.10
2019-01-05T17:17:16.027Z,3.23
2019-01-05T17:19:58.550Z,3.23
2019-01-05T17:22:35.321Z,3.07
2019-01-05T17:25:09.376Z,3.20
2019-01-05T17:27:56.447Z,2.70
2019-01-05T17:30:43.415Z,2.80
2019-01-05T17:33:29.189Z,3.03
2019-01-05T17:36:08.709Z,2.70
2019-01-05T17:38:48.365Z,2.87
2019-01-05T17:41:35.526Z,2.40
2019-01-05T17:44:09.178Z,2.53
2019-01-05T17:46:40.000Z,2.40
2019-01-05T17:49:26.040Z,2.50
2019-01-05T17:52:09.046Z,2.70
2019-01-05T17:54:51.506Z,2.97
2019-01-05T17:57:40.469Z,2.90
2019-01-05T18:00:17.455Z,3.03
2019-01-05T18:03:04.746Z,2.97
2019-01-05T18:05:35.584Z,2.73
2019-01-05T18:08:06.383Z,3.27
2019-01-05T18:10:42.755Z,3.10
2019-01-05T18:13:31.770Z,2.90
2019-01-05T18:16:11.501Z,3.03
2019-01-05T18:18:48.033Z,3.23
2019-01-05T18:21:37.140Z,2.90
2019-01-05T18:24:16.729Z,2.70
2019-01-05T18:26:53.212Z,3.17
2019-01-05T18:29:36.240Z,2.77
2019-01-05T18:32:23.560Z,3.00
2019-01-05T18:35:00.304Z,2.43
2019-01-05T18:37:31.599Z,2.90
2019-01-05T18:40:18.560Z,3.60
2019-01-05T18:42:52.107Z,3.10
2019-01-05T18:45:34.700Z,3.67
2019-01-05T18:48:11.527Z,2.90
2019-01-05T18:50:52.811Z,3.13
2019-01-05T18:53:39.844Z,3.23
2019-01-05T18:56:10.679Z,3.00
2019-01-05T18:58:41.532Z,3.53
2019-01-05T19:01:12.401Z,2.80
2019-01-05T19:03:46.119Z,3.20
2019-01-05T19:06:25.600Z,3.23
2019-01-05T19:08:59.279Z,3.23
2019-01-05T19:11:38.932Z,2.80
2019-01-05T19:14:12.232Z,3.20
2019-01-05T19:16:59.310Z,2.43
2019-01-05T19:19:38.771Z,2.97
2019-01-05T19:22:09.656Z,3.03
2019-01-05T19:24:58.865Z,2.63
2019-01-05T19:27:45.972Z,2.70
2019-01-05T19:30:33.431Z,2.73
2019-01-05T19:33:04.259Z,3.07
2019-01-05T19:35:53.079Z,2.47
2019-01-05T19:38:32.735Z,3.10
2019-01-05T19:41:21.816Z,2.53
2019-01-05T19:44:00.187Z,2.90
2019-01-05T19:46:33.541Z,2.50
2019-01-05T19:49:04.361Z,2.63
2019-01-05T19:51:44.117Z,2.47
2019-01-05T19:54:17.347Z,3.03
2019-01-05T19:57:04.483Z,2.77
2019-01-05T19:59:38.255Z,2.80
2019-01-05T20:02:09.092Z,2.80
2019-01-05T20:04:55.859Z,3.10
2019-01-05T20:07:38.988Z,3.00
2019-01-05T20:10:27.082Z,2.90
2019-01-05T20:13:00.598Z,3.00
2019-01-05T20:15:31.407Z,3.40
2019-01-05T20:18:11.409Z,2.50
2019-01-05T20:20:53.976Z,2.50
2019-01-05T20:23:33.635Z,3.13
2019-01-05T20:26:04.371Z,3.27
2019-01-05T20:28:37.778Z,2.43
2019-01-05T20:31:17.238Z,3.03
2019-01-05T20:34:04.070Z,3.17
2019-01-05T20:36:40.684Z,3.70
2019-01-05T20:39:27.880Z,3.07
2019-01-05T20:41:58.698Z,3.73
2019-01-05T20:44:29.487Z,3.00
2019-01-05T20:47:02.969Z,3.07
2019-01-05T20:49:36.651Z,3.07
2019-01-05T20:52:23.699Z,3.20
2019-01-05T20:58:11.489Z,3.40
2019-01-05T21:00:42.346Z,3.60
2019-01-05T21:03:15.610Z,3.60
2019-01-05T21:06:01.757Z,3.10
2019-01-05T21:08:48.580Z,2.97
2019-01-05T21:11:35.799Z,3.33
2019-01-05T21:14:22.893Z,3.33
2019-01-05T21:16:56.355Z,3.17
2019-01-05T21:19:43.298Z,3.40
2019-01-05T21:22:30.289Z,3.20
2019-01-05T21:25:01.031Z,3.43
2019-01-05T21:27:47.935Z,4.07
2019-01-05T21:30:27.523Z,4.10
2019-01-05T21:33:07.127Z,3.90
2019-01-05T21:35:40.827Z,4.30
2019-01-05T21:38:29.975Z,4.50
2019-01-05T21:41:06.493Z,4.80
2019-01-05T21:43:53.537Z,4.13
2019-01-05T21:46:40.658Z,4.67
2019-01-05T21:49:20.667Z,5.17
2019-01-05T21:52:09.427Z,5.03
2019-01-05T21:54:49.458Z,4.40
2019-01-05T21:57:31.957Z,4.53
2019-01-05T22:00:14.619Z,5.57
2019-01-05T22:02:45.441Z,4.53
2019-01-05T22:05:31.345Z,4.80
2019-01-05T22:08:05.048Z,4.90
2019-01-05T22:10:41.686Z,4.63
2019-01-05T22:13:27.492Z,5.57
2019-01-05T22:15:58.302Z,4.47
2019-01-05T22:18:47.141Z,5.83
2019-01-05T22:21:35.888Z,4.77
2019-01-05T22:24:12.388Z,4.40
2019-01-05T22:26:44.140Z,4.63
2019-01-05T22:29:21.031Z,3.83
2019-01-05T22:34:53.957Z,4.87
2019-01-05T22:37:36.902Z,5.40
2019-01-05T22:40:25.925Z,5.60
2019-01-05T22:43:00.987Z,5.13
2019-01-05T22:45:34.633Z,4.93
2019-01-05T22:48:10.957Z,5.40
